sensor_id;sensor_type;location;lat;lon;timestamp;temperature;humidity
27759;DHT22;15148;48.972;12.794;2023-11-19T00:04:42;3.60;99.90
27759;DHT22;15148;48.972;12.794;2023-11-19T00:09:44;3.60;99.90
27759;DHT22;15148;48.972;12.794;2023-11-19T00:14:46;3.60;99.90
27759;DHT22;15148;48.972;12.794;2023-11-19T00:19:47;3.60;99.90
27759;DHT22;15148;48.972;12.794;2023-11-19T00:24:50;3.60;99.90
27759;DHT22;15148;48.972;12.794;2023-11-19T00:29:52;3.60;99.90
27759;DHT22;15148;48.972;12.794;2023-11-19T00:34:54;3.60;99.90
27759;DHT22;15148;48.972;12.794;2023-11-19T00:39:56;3.60;99.90
27759;DHT22;15148;48.972;12.794;2023-11-19T00:44:58;3.60;99.90
27759;DHT22;15148;48.972;12.794;2023-11-19T00:50:00;3.60;99.90
27759;DHT22;15148;48.972;12.794;2023-11-19T00:55:02;3.60;99.90
27759;DHT22;15148;48.972;12.794;2023-11-19T01:00:05;3.70;99.90
27759;DHT22;15148;48.972;12.794;2023-11-19T01:05:27;3.70;99.90
27759;DHT22;15148;48.972;12.794;2023-11-19T01:10:30;3.70;99.90
27759;DHT22;15148;48.972;12.794;2023-11-19T01:15:32;3.80;99.90
27759;DHT22;15148;48.972;12.794;2023-11-19T01:20:34;3.80;99.90
27759;DHT22;15148;48.972;12.794;2023-11-19T01:25:36;3.80;99.90
27759;DHT22;15148;48.972;12.794;2023-11-19T01:30:40;3.80;99.90
27759;DHT22;15148;48.972;12.794;2023-11-19T01:35:43;3.80;99.90
27759;DHT22;15148;48.972;12.794;2023-11-19T01:40:45;3.80;99.90
27759;DHT22;15148;48.972;12.794;2023-11-19T01:45:47;3.90;99.90
27759;DHT22;15148;48.972;12.794;2023-11-19T01:50:49;3.90;99.90
27759;DHT22;15148;48.972;12.794;2023-11-19T01:56:05;3.90;99.90
27759;DHT22;15148;48.972;12.794;2023-11-19T02:01:11;3.90;99.90
27759;DHT22;15148;48.972;12.794;2023-11-19T02:06:14;3.90;99.90
27759;DHT22;15148;48.972;12.794;2023-11-19T02:11:17;3.90;99.90
27759;DHT22;15148;48.972;12.794;2023-11-19T02:16:19;3.90;99.90
27759;DHT22;15148;48.972;12.794;2023-11-19T02:21:21;3.90;99.90
27759;DHT22;15148;48.972;12.794;2023-11-19T02:31:55;3.90;99.90
27759;DHT22;15148;48.972;12.794;2023-11-19T02:36:58;3.90;99.90
27759;DHT22;15148;48.972;12.794;2023-11-19T02:42:00;3.90;99.90
27759;DHT22;15148;48.972;12.794;2023-11-19T02:47:02;3.90;99.90
27759;DHT22;15148;48.972;12.794;2023-11-19T02:52:06;3.90;99.90
27759;DHT22;15148;48.972;12.794;2023-11-19T02:57:08;3.90;99.90
27759;DHT22;15148;48.972;12.794;2023-11-19T03:02:23;3.90;99.90
27759;DHT22;15148;48.972;12.794;2023-11-19T03:07:28;3.90;99.90
27759;DHT22;15148;48.972;12.794;2023-11-19T03:12:29;3.90;99.90
27759;DHT22;15148;48.972;12.794;2023-11-19T03:17:32;3.90;99.90
27759;DHT22;15148;48.972;12.794;2023-11-19T03:22:33;4.00;99.90
27759;DHT22;15148;48.972;12.794;2023-11-19T03:27:38;4.00;99.90
27759;DHT22;15148;48.972;12.794;2023-11-19T03:32:41;4.00;99.90
27759;DHT22;15148;48.972;12.794;2023-11-19T03:37:42;4.00;99.90
27759;DHT22;15148;48.972;12.794;2023-11-19T03:42:47;4.00;99.90
27759;DHT22;15148;48.972;12.794;2023-11-19T03:47:49;4.00;99.90
27759;DHT22;15148;48.972;12.794;2023-11-19T03:52:52;3.90;99.90
27759;DHT22;15148;48.972;12.794;2023-11-19T03:57:54;3.90;99.90
27759;DHT22;15148;48.972;12.794;2023-11-19T04:02:56;4.00;99.90
27759;DHT22;15148;48.972;12.794;2023-11-19T04:07:58;4.00;99.90
27759;DHT22;15148;48.972;12.794;2023-11-19T04:13:00;4.10;99.90
27759;DHT22;15148;48.972;12.794;2023-11-19T04:18:02;4.00;99.90
27759;DHT22;15148;48.972;12.794;2023-11-19T04:23:04;4.00;99.90
27759;DHT22;15148;48.972;12.794;2023-11-19T04:28:06;4.00;99.90
27759;DHT22;15148;48.972;12.794;2023-11-19T04:33:08;4.10;99.90
27759;DHT22;15148;48.972;12.794;2023-11-19T04:38:11;4.10;99.90
27759;DHT22;15148;48.972;12.794;2023-11-19T04:43:13;4.10;99.90
27759;DHT22;15148;48.972;12.794;2023-11-19T04:48:16;4.10;99.90
27759;DHT22;15148;48.972;12.794;2023-11-19T04:53:18;4.20;99.90
27759;DHT22;15148;48.972;12.794;2023-11-19T04:58:20;4.20;99.90
27759;DHT22;15148;48.972;12.794;2023-11-19T05:03:22;4.20;99.90
27759;DHT22;15148;48.972;12.794;2023-11-19T05:08:24;4.20;99.90
27759;DHT22;15148;48.972;12.794;2023-11-19T05:13:26;4.20;99.90
27759;DHT22;15148;48.972;12.794;2023-11-19T05:18:28;4.30;99.90
27759;DHT22;15148;48.972;12.794;2023-11-19T05:23:30;4.30;99.90
27759;DHT22;15148;48.972;12.794;2023-11-19T05:28:32;4.30;99.90
27759;DHT22;15148;48.972;12.794;2023-11-19T05:33:34;4.30;99.90
27759;DHT22;15148;48.972;12.794;2023-11-19T05:38:36;4.30;99.90
27759;DHT22;15148;48.972;12.794;2023-11-19T05:43:38;4.30;99.90
27759;DHT22;15148;48.972;12.794;2023-11-19T05:48:42;4.40;99.90
27759;DHT22;15148;48.972;12.794;2023-11-19T05:53:45;4.40;99.90
27759;DHT22;15148;48.972;12.794;2023-11-19T05:58:51;4.40;99.90
27759;DHT22;15148;48.972;12.794;2023-11-19T06:03:53;4.50;99.90
27759;DHT22;15148;48.972;12.794;2023-11-19T06:08:56;4.50;99.90
27759;DHT22;15148;48.972;12.794;2023-11-19T06:13:58;4.50;99.90
27759;DHT22;15148;48.972;12.794;2023-11-19T06:19:00;4.60;99.90
27759;DHT22;15148;48.972;12.794;2023-11-19T06:24:02;4.60;99.90
27759;DHT22;15148;48.972;12.794;2023-11-19T06:29:05;4.60;99.90
27759;DHT22;15148;48.972;12.794;2023-11-19T06:34:07;4.60;99.90
27759;DHT22;15148;48.972;12.794;2023-11-19T06:39:09;4.60;99.90
27759;DHT22;15148;48.972;12.794;2023-11-19T06:44:12;4.70;99.90
27759;DHT22;15148;48.972;12.794;2023-11-19T06:49:14;4.70;99.90
27759;DHT22;15148;48.972;12.794;2023-11-19T06:54:18;4.70;99.90
27759;DHT22;15148;48.972;12.794;2023-11-19T06:59:20;4.70;99.90
27759;DHT22;15148;48.972;12.794;2023-11-19T07:04:23;4.70;99.90
27759;DHT22;15148;48.972;12.794;2023-11-19T07:09:25;4.70;99.90
27759;DHT22;15148;48.972;12.794;2023-11-19T07:14:27;4.70;99.90
27759;DHT22;15148;48.972;12.794;2023-11-19T07:19:30;4.70;99.90
27759;DHT22;15148;48.972;12.794;2023-11-19T07:24:32;4.70;99.90
27759;DHT22;15148;48.972;12.794;2023-11-19T07:29:39;4.70;99.90
27759;DHT22;15148;48.972;12.794;2023-11-19T07:34:41;4.80;99.90
27759;DHT22;15148;48.972;12.794;2023-11-19T07:39:42;4.80;99.90
27759;DHT22;15148;48.972;12.794;2023-11-19T07:44:44;4.80;99.90
27759;DHT22;15148;48.972;12.794;2023-11-19T07:49:47;4.80;99.90
27759;DHT22;15148;48.972;12.794;2023-11-19T07:54:49;4.80;99.90
27759;DHT22;15148;48.972;12.794;2023-11-19T07:59:51;4.80;99.90
27759;DHT22;15148;48.972;12.794;2023-11-19T08:04:53;4.90;99.90
27759;DHT22;15148;48.972;12.794;2023-11-19T08:09:57;4.80;99.90
27759;DHT22;15148;48.972;12.794;2023-11-19T08:14:59;4.80;99.90
27759;DHT22;15148;48.972;12.794;2023-11-19T08:20:00;4.90;99.90
27759;DHT22;15148;48.972;12.794;2023-11-19T08:25:04;4.90;99.90
27759;DHT22;15148;48.972;12.794;2023-11-19T08:30:07;4.90;99.90
27759;DHT22;15148;48.972;12.794;2023-11-19T08:35:09;4.90;99.90
27759;DHT22;15148;48.972;12.794;2023-11-19T08:40:11;4.90;99.90
27759;DHT22;15148;48.972;12.794;2023-11-19T08:45:16;4.90;99.90
27759;DHT22;15148;48.972;12.794;2023-11-19T08:50:18;5.00;99.90
27759;DHT22;15148;48.972;12.794;2023-11-19T08:55:20;5.00;99.90
27759;DHT22;15148;48.972;12.794;2023-11-19T09:00:22;5.10;99.90
27759;DHT22;15148;48.972;12.794;2023-11-19T09:05:24;5.10;99.90
27759;DHT22;15148;48.972;12.794;2023-11-19T09:10:26;5.10;99.90
27759;DHT22;15148;48.972;12.794;2023-11-19T09:15:28;5.10;99.90
27759;DHT22;15148;48.972;12.794;2023-11-19T09:20:30;5.10;99.90
27759;DHT22;15148;48.972;12.794;2023-11-19T09:25:39;5.20;99.90
27759;DHT22;15148;48.972;12.794;2023-11-19T09:30:44;5.20;99.90
27759;DHT22;15148;48.972;12.794;2023-11-19T09:35:46;5.20;99.90
27759;DHT22;15148;48.972;12.794;2023-11-19T09:40:48;5.20;99.90
27759;DHT22;15148;48.972;12.794;2023-11-19T09:45:51;5.20;99.90
27759;DHT22;15148;48.972;12.794;2023-11-19T09:50:53;5.20;99.90
27759;DHT22;15148;48.972;12.794;2023-11-19T09:55:55;5.30;99.90
27759;DHT22;15148;48.972;12.794;2023-11-19T10:00:58;5.30;99.90
27759;DHT22;15148;48.972;12.794;2023-11-19T10:06:20;5.30;99.90
27759;DHT22;15148;48.972;12.794;2023-11-19T10:11:23;5.40;99.90
27759;DHT22;15148;48.972;12.794;2023-11-19T10:16:29;5.40;99.90
27759;DHT22;15148;48.972;12.794;2023-11-19T10:21:35;5.50;99.90
27759;DHT22;15148;48.972;12.794;2023-11-19T10:26:37;5.50;99.90
27759;DHT22;15148;48.972;12.794;2023-11-19T10:31:39;5.60;99.90
27759;DHT22;15148;48.972;12.794;2023-11-19T10:36:41;5.60;99.90
27759;DHT22;15148;48.972;12.794;2023-11-19T10:41:43;5.70;99.90
27759;DHT22;15148;48.972;12.794;2023-11-19T10:46:45;5.70;99.90
27759;DHT22;15148;48.972;12.794;2023-11-19T10:51:47;5.80;99.90
27759;DHT22;15148;48.972;12.794;2023-11-19T10:56:55;5.90;99.90
27759;DHT22;15148;48.972;12.794;2023-11-19T11:02:03;6.00;99.90
27759;DHT22;15148;48.972;12.794;2023-11-19T11:07:09;6.10;99.90
27759;DHT22;15148;48.972;12.794;2023-11-19T11:12:11;6.20;99.90
27759;DHT22;15148;48.972;12.794;2023-11-19T11:17:17;6.20;99.90
27759;DHT22;15148;48.972;12.794;2023-11-19T11:22:21;6.30;99.90
27759;DHT22;15148;48.972;12.794;2023-11-19T11:38:23;6.50;99.90
27759;DHT22;15148;48.972;12.794;2023-11-19T11:43:50;6.50;99.90
27759;DHT22;15148;48.972;12.794;2023-11-19T11:48:52;6.60;99.90
27759;DHT22;15148;48.972;12.794;2023-11-19T11:53:58;6.70;99.90
27759;DHT22;15148;48.972;12.794;2023-11-19T11:59:00;6.80;99.90
27759;DHT22;15148;48.972;12.794;2023-11-19T12:04:02;6.80;99.90
27759;DHT22;15148;48.972;12.794;2023-11-19T12:09:06;6.80;99.90
27759;DHT22;15148;48.972;12.794;2023-11-19T12:14:08;6.80;99.90
27759;DHT22;15148;48.972;12.794;2023-11-19T12:19:12;6.90;99.90
27759;DHT22;15148;48.972;12.794;2023-11-19T12:24:14;7.00;99.90
27759;DHT22;15148;48.972;12.794;2023-11-19T12:29:17;7.00;99.90
27759;DHT22;15148;48.972;12.794;2023-11-19T12:34:18;7.10;99.90
27759;DHT22;15148;48.972;12.794;2023-11-19T12:39:20;7.20;99.90
27759;DHT22;15148;48.972;12.794;2023-11-19T12:44:22;7.40;99.90
27759;DHT22;15148;48.972;12.794;2023-11-19T12:49:24;7.40;99.90
27759;DHT22;15148;48.972;12.794;2023-11-19T12:54:36;7.50;99.90
27759;DHT22;15148;48.972;12.794;2023-11-19T12:59:38;7.60;99.90
27759;DHT22;15148;48.972;12.794;2023-11-19T13:04:40;7.70;99.90
27759;DHT22;15148;48.972;12.794;2023-11-19T13:09:42;8.00;99.90
27759;DHT22;15148;48.972;12.794;2023-11-19T13:14:44;8.20;99.90
27759;DHT22;15148;48.972;12.794;2023-11-19T13:19:48;8.30;99.90
27759;DHT22;15148;48.972;12.794;2023-11-19T13:24:50;8.40;99.90
27759;DHT22;15148;48.972;12.794;2023-11-19T13:29:52;8.50;99.90
27759;DHT22;15148;48.972;12.794;2023-11-19T13:34:54;8.60;99.90
27759;DHT22;15148;48.972;12.794;2023-11-19T13:39:56;8.70;99.90
27759;DHT22;15148;48.972;12.794;2023-11-19T13:44:58;8.80;99.90
27759;DHT22;15148;48.972;12.794;2023-11-19T13:50:00;8.80;99.90
27759;DHT22;15148;48.972;12.794;2023-11-19T13:55:02;8.90;99.90
27759;DHT22;15148;48.972;12.794;2023-11-19T14:00:06;9.00;99.90
27759;DHT22;15148;48.972;12.794;2023-11-19T14:05:09;9.10;99.90
27759;DHT22;15148;48.972;12.794;2023-11-19T14:10:12;9.10;99.90
27759;DHT22;15148;48.972;12.794;2023-11-19T14:15:14;9.20;99.90
27759;DHT22;15148;48.972;12.794;2023-11-19T14:20:18;9.30;99.90
27759;DHT22;15148;48.972;12.794;2023-11-19T14:25:20;9.40;99.90
27759;DHT22;15148;48.972;12.794;2023-11-19T14:30:23;9.50;99.90
27759;DHT22;15148;48.972;12.794;2023-11-19T14:35:25;9.50;99.90
27759;DHT22;15148;48.972;12.794;2023-11-19T14:40:27;9.60;99.90
27759;DHT22;15148;48.972;12.794;2023-11-19T14:45:32;9.50;99.90
27759;DHT22;15148;48.972;12.794;2023-11-19T14:50:45;9.50;99.90
27759;DHT22;15148;48.972;12.794;2023-11-19T14:55:48;9.40;99.90
27759;DHT22;15148;48.972;12.794;2023-11-19T15:00:50;9.50;99.90
27759;DHT22;15148;48.972;12.794;2023-11-19T15:05:52;9.40;99.90
27759;DHT22;15148;48.972;12.794;2023-11-19T15:10:54;9.30;99.90
27759;DHT22;15148;48.972;12.794;2023-11-19T15:15:59;9.10;99.90
27759;DHT22;15148;48.972;12.794;2023-11-19T15:21:01;9.10;99.90
27759;DHT22;15148;48.972;12.794;2023-11-19T15:26:04;8.80;99.90
27759;DHT22;15148;48.972;12.794;2023-11-19T15:31:06;8.70;99.90
27759;DHT22;15148;48.972;12.794;2023-11-19T15:36:08;8.60;99.90
27759;DHT22;15148;48.972;12.794;2023-11-19T15:41:10;8.30;99.90
27759;DHT22;15148;48.972;12.794;2023-11-19T15:46:14;8.10;99.90
27759;DHT22;15148;48.972;12.794;2023-11-19T15:51:18;8.00;99.90
27759;DHT22;15148;48.972;12.794;2023-11-19T15:56:20;7.80;99.90
27759;DHT22;15148;48.972;12.794;2023-11-19T16:01:22;7.60;99.90
27759;DHT22;15148;48.972;12.794;2023-11-19T16:06:24;7.40;99.90
27759;DHT22;15148;48.972;12.794;2023-11-19T16:11:26;7.40;99.90
27759;DHT22;15148;48.972;12.794;2023-11-19T16:16:28;7.30;99.90
27759;DHT22;15148;48.972;12.794;2023-11-19T16:21:30;7.20;99.90
27759;DHT22;15148;48.972;12.794;2023-11-19T16:26:32;7.00;99.90
27759;DHT22;15148;48.972;12.794;2023-11-19T16:31:34;6.80;99.90
27759;DHT22;15148;48.972;12.794;2023-11-19T16:36:37;6.80;99.90
27759;DHT22;15148;48.972;12.794;2023-11-19T16:41:39;6.70;99.90
27759;DHT22;15148;48.972;12.794;2023-11-19T16:46:44;6.70;99.90
27759;DHT22;15148;48.972;12.794;2023-11-19T16:51:46;6.60;99.90
27759;DHT22;15148;48.972;12.794;2023-11-19T16:56:49;6.60;99.90
27759;DHT22;15148;48.972;12.794;2023-11-19T17:01:51;6.50;99.90
27759;DHT22;15148;48.972;12.794;2023-11-19T17:06:53;6.50;99.90
27759;DHT22;15148;48.972;12.794;2023-11-19T17:11:55;6.30;99.90
27759;DHT22;15148;48.972;12.794;2023-11-19T17:16:57;6.20;99.90
27759;DHT22;15148;48.972;12.794;2023-11-19T17:21:59;6.10;99.90
27759;DHT22;15148;48.972;12.794;2023-11-19T17:27:01;6.10;99.90
27759;DHT22;15148;48.972;12.794;2023-11-19T17:32:03;6.10;99.90
27759;DHT22;15148;48.972;12.794;2023-11-19T17:37:05;6.00;99.90
27759;DHT22;15148;48.972;12.794;2023-11-19T17:42:08;6.10;99.90
27759;DHT22;15148;48.972;12.794;2023-11-19T17:47:10;6.10;99.90
27759;DHT22;15148;48.972;12.794;2023-11-19T17:52:12;6.10;99.90
27759;DHT22;15148;48.972;12.794;2023-11-19T17:57:14;6.00;99.90
27759;DHT22;15148;48.972;12.794;2023-11-19T18:02:16;6.10;99.90
27759;DHT22;15148;48.972;12.794;2023-11-19T18:07:20;6.20;99.90
27759;DHT22;15148;48.972;12.794;2023-11-19T18:12:22;6.30;99.90
27759;DHT22;15148;48.972;12.794;2023-11-19T18:17:24;6.40;99.90
27759;DHT22;15148;48.972;12.794;2023-11-19T18:22:26;6.40;99.90
27759;DHT22;15148;48.972;12.794;2023-11-19T18:27:27;6.50;99.90
27759;DHT22;15148;48.972;12.794;2023-11-19T18:32:29;6.50;99.90
27759;DHT22;15148;48.972;12.794;2023-11-19T18:37:32;6.50;99.90
27759;DHT22;15148;48.972;12.794;2023-11-19T18:42:38;6.50;99.90
27759;DHT22;15148;48.972;12.794;2023-11-19T18:47:40;6.50;99.90
27759;DHT22;15148;48.972;12.794;2023-11-19T18:52:42;6.50;99.90
27759;DHT22;15148;48.972;12.794;2023-11-19T18:57:45;6.70;99.90
27759;DHT22;15148;48.972;12.794;2023-11-19T19:02:48;6.80;99.90
27759;DHT22;15148;48.972;12.794;2023-11-19T19:07:55;7.10;99.90
27759;DHT22;15148;48.972;12.794;2023-11-19T19:12:58;7.50;99.90
27759;DHT22;15148;48.972;12.794;2023-11-19T19:18:00;7.80;99.90
27759;DHT22;15148;48.972;12.794;2023-11-19T19:23:02;7.80;99.90
27759;DHT22;15148;48.972;12.794;2023-11-19T19:28:04;7.80;99.90
27759;DHT22;15148;48.972;12.794;2023-11-19T19:33:10;7.80;99.90
27759;DHT22;15148;48.972;12.794;2023-11-19T19:38:13;7.80;99.90
27759;DHT22;15148;48.972;12.794;2023-11-19T19:43:15;7.70;99.90
27759;DHT22;15148;48.972;12.794;2023-11-19T19:48:18;7.60;99.90
27759;DHT22;15148;48.972;12.794;2023-11-19T19:53:21;7.50;99.90
27759;DHT22;15148;48.972;12.794;2023-11-19T19:58:23;7.50;99.90
27759;DHT22;15148;48.972;12.794;2023-11-19T20:03:25;7.40;99.90
27759;DHT22;15148;48.972;12.794;2023-11-19T20:08:27;7.20;99.90
27759;DHT22;15148;48.972;12.794;2023-11-19T20:13:29;7.20;99.90
27759;DHT22;15148;48.972;12.794;2023-11-19T20:18:32;7.10;99.90
27759;DHT22;15148;48.972;12.794;2023-11-19T20:23:35;7.10;99.90
27759;DHT22;15148;48.972;12.794;2023-11-19T20:28:37;7.10;99.90
27759;DHT22;15148;48.972;12.794;2023-11-19T20:33:39;7.10;99.90
27759;DHT22;15148;48.972;12.794;2023-11-19T20:38:41;7.00;99.90
27759;DHT22;15148;48.972;12.794;2023-11-19T20:43:44;7.00;99.90
27759;DHT22;15148;48.972;12.794;2023-11-19T20:48:45;6.80;99.90
27759;DHT22;15148;48.972;12.794;2023-11-19T20:53:47;6.70;99.90
27759;DHT22;15148;48.972;12.794;2023-11-19T20:58:49;6.70;99.90
27759;DHT22;15148;48.972;12.794;2023-11-19T21:03:51;6.60;99.90
27759;DHT22;15148;48.972;12.794;2023-11-19T21:08:53;6.70;99.90
27759;DHT22;15148;48.972;12.794;2023-11-19T21:13:55;6.70;99.90
27759;DHT22;15148;48.972;12.794;2023-11-19T21:18:57;6.70;99.90
27759;DHT22;15148;48.972;12.794;2023-11-19T21:23:59;6.70;99.90
27759;DHT22;15148;48.972;12.794;2023-11-19T21:29:04;6.80;99.90
27759;DHT22;15148;48.972;12.794;2023-11-19T21:34:07;6.80;99.90
27759;DHT22;15148;48.972;12.794;2023-11-19T21:39:09;6.90;99.90
27759;DHT22;15148;48.972;12.794;2023-11-19T21:44:12;6.90;99.90
27759;DHT22;15148;48.972;12.794;2023-11-19T21:49:14;6.80;99.90
27759;DHT22;15148;48.972;12.794;2023-11-19T21:54:16;6.90;99.90
27759;DHT22;15148;48.972;12.794;2023-11-19T21:59:18;6.90;99.90
27759;DHT22;15148;48.972;12.794;2023-11-19T22:04:20;6.90;99.90
27759;DHT22;15148;48.972;12.794;2023-11-19T22:09:22;6.80;99.90
27759;DHT22;15148;48.972;12.794;2023-11-19T22:14:24;6.80;99.90
27759;DHT22;15148;48.972;12.794;2023-11-19T22:19:26;6.80;99.90
27759;DHT22;15148;48.972;12.794;2023-11-19T22:24:28;6.80;99.90
27759;DHT22;15148;48.972;12.794;2023-11-19T22:29:30;6.80;99.90
27759;DHT22;15148;48.972;12.794;2023-11-19T22:34:32;6.70;99.90
27759;DHT22;15148;48.972;12.794;2023-11-19T22:39:34;6.60;99.90
27759;DHT22;15148;48.972;12.794;2023-11-19T22:44:38;6.50;99.90
27759;DHT22;15148;48.972;12.794;2023-11-19T22:49:40;6.40;99.90
27759;DHT22;15148;48.972;12.794;2023-11-19T22:54:42;6.40;99.90
27759;DHT22;15148;48.972;12.794;2023-11-19T22:59:44;6.30;99.90
27759;DHT22;15148;48.972;12.794;2023-11-19T23:04:46;6.30;99.90
27759;DHT22;15148;48.972;12.794;2023-11-19T23:09:48;6.20;99.90
27759;DHT22;15148;48.972;12.794;2023-11-19T23:14:50;6.20;99.90
27759;DHT22;15148;48.972;12.794;2023-11-19T23:19:52;6.00;99.90
27759;DHT22;15148;48.972;12.794;2023-11-19T23:25:00;6.00;99.90
27759;DHT22;15148;48.972;12.794;2023-11-19T23:30:02;5.90;99.90
27759;DHT22;15148;48.972;12.794;2023-11-19T23:35:05;5.90;99.90
27759;DHT22;15148;48.972;12.794;2023-11-19T23:40:11;5.80;99.90
27759;DHT22;15148;48.972;12.794;2023-11-19T23:45:15;5.90;99.90
27759;DHT22;15148;48.972;12.794;2023-11-19T23:50:17;5.90;99.90
27759;DHT22;15148;48.972;12.794;2023-11-19T23:55:19;5.80;99.90
